createdAt,value
2017-04-23T00:00:45.677Z,8.30
2017-04-23T00:01:43.178Z,8.30
2017-04-23T00:02:40.993Z,8.20
2017-04-23T00:03:38.850Z,8.20
2017-04-23T00:04:36.671Z,8.10
2017-04-23T00:05:34.494Z,8.10
2017-04-23T00:06:31.937Z,8.10
2017-04-23T00:07:29.792Z,8.10
2017-04-23T00:08:27.639Z,8.10
2017-04-23T00:09:25.453Z,8.10
2017-04-23T00:10:23.270Z,8.10
2017-04-23T00:11:20.689Z,8.10
2017-04-23T00:12:18.509Z,8.20
2017-04-23T00:13:16.007Z,8.20
2017-04-23T00:14:13.437Z,8.20
2017-04-23T00:15:11.250Z,8.30
2017-04-23T00:16:09.066Z,8.30
2017-04-23T00:17:06.886Z,8.30
2017-04-23T00:18:04.717Z,8.20
2017-04-23T00:19:02.205Z,8.20
2017-04-23T00:20:00.058Z,8.30
2017-04-23T00:20:57.885Z,8.30
2017-04-23T00:21:55.717Z,8.20
2017-04-23T00:22:53.169Z,8.20
2017-04-23T00:23:50.985Z,8.00
2017-04-23T00:24:48.845Z,8.00
2017-04-23T00:25:46.274Z,8.00
2017-04-23T00:26:44.125Z,8.00
2017-04-23T00:27:41.977Z,8.00
2017-04-23T00:28:39.794Z,8.10
2017-04-23T00:29:37.609Z,8.10
2017-04-23T00:30:35.077Z,8.10
2017-04-23T00:31:32.508Z,8.20
2017-04-23T00:32:29.929Z,8.20
2017-04-23T00:33:27.816Z,8.00
2017-04-23T00:34:25.748Z,7.90
2017-04-23T00:35:23.566Z,7.90
2017-04-23T00:36:21.445Z,8.00
2017-04-23T00:37:18.911Z,8.00
2017-04-23T00:38:16.729Z,7.80
2017-04-23T00:39:14.660Z,7.80
2017-04-23T00:40:12.479Z,7.70
2017-04-23T00:41:09.897Z,7.70
2017-04-23T00:42:07.776Z,7.70
2017-04-23T00:43:05.602Z,7.70
2017-04-23T00:44:03.449Z,7.70
2017-04-23T00:45:01.277Z,7.70
2017-04-23T00:45:59.091Z,7.70
2017-04-23T00:46:57.286Z,7.60
2017-04-23T00:47:55.158Z,7.50
2017-04-23T00:48:53.036Z,7.40
2017-04-23T00:49:50.850Z,7.40
2017-04-23T00:50:48.692Z,7.40
2017-04-23T00:51:46.580Z,7.40
2017-04-23T00:52:44.391Z,7.40
2017-04-23T00:53:42.246Z,7.50
2017-04-23T00:54:40.060Z,7.50
2017-04-23T00:55:38.193Z,7.50
2017-04-23T00:56:36.023Z,7.60
2017-04-23T00:57:33.838Z,7.60
2017-04-23T00:58:31.657Z,7.60
2017-04-23T00:59:29.518Z,7.60
2017-04-23T01:00:27.354Z,7.50
2017-04-23T01:01:25.163Z,7.50
2017-04-23T01:02:22.981Z,7.60
2017-04-23T01:03:20.810Z,7.60
2017-04-23T01:04:18.626Z,7.50
2017-04-23T01:05:16.125Z,7.50
2017-04-23T01:06:13.558Z,7.50
2017-04-23T01:07:11.382Z,7.40
2017-04-23T01:08:09.221Z,7.40
2017-04-23T01:09:07.034Z,7.40
2017-04-23T01:10:04.857Z,7.40
2017-04-23T01:11:02.708Z,7.40
2017-04-23T01:12:00.134Z,7.40
2017-04-23T01:12:57.971Z,7.30
2017-04-23T01:13:55.383Z,7.30
2017-04-23T01:14:53.214Z,7.50
2017-04-23T01:15:51.017Z,7.50
2017-04-23T01:16:48.877Z,7.40
2017-04-23T01:17:46.827Z,7.40
2017-04-23T01:18:44.664Z,7.40
2017-04-23T01:19:42.699Z,7.40
2017-04-23T01:20:40.523Z,7.40
2017-04-23T01:21:38.355Z,7.40
2017-04-23T01:22:35.823Z,7.40
2017-04-23T01:23:33.262Z,7.40
2017-04-23T01:24:31.081Z,7.40
2017-04-23T01:25:28.912Z,7.50
2017-04-23T01:26:26.725Z,7.50
2017-04-23T01:27:24.161Z,7.50
2017-04-23T01:28:22.120Z,7.50
2017-04-23T01:29:19.929Z,7.60
2017-04-23T01:30:17.805Z,7.60
2017-04-23T01:31:15.655Z,7.70
2017-04-23T01:32:13.474Z,7.70
2017-04-23T01:33:11.317Z,7.70
2017-04-23T01:34:09.205Z,7.70
2017-04-23T01:35:07.043Z,7.70
2017-04-23T01:36:04.868Z,7.70
2017-04-23T01:37:02.698Z,7.70
2017-04-23T01:38:00.518Z,7.60
2017-04-23T01:38:58.697Z,7.60
2017-04-23T01:39:56.579Z,7.60
2017-04-23T01:40:54.399Z,7.60
2017-04-23T01:41:51.820Z,7.60
2017-04-23T01:42:49.638Z,7.50
2017-04-23T01:43:47.621Z,7.40
2017-04-23T01:44:45.445Z,7.30
2017-04-23T01:45:43.321Z,7.20
2017-04-23T01:46:40.737Z,7.20
2017-04-23T01:47:38.576Z,7.10
2017-04-23T01:48:36.017Z,7.10
2017-04-23T01:49:34.222Z,7.10
2017-04-23T01:50:32.130Z,7.20
2017-04-23T01:51:29.994Z,7.20
2017-04-23T01:52:27.852Z,7.20
2017-04-23T01:53:25.678Z,7.20
2017-04-23T01:54:23.509Z,7.30
2017-04-23T01:55:21.353Z,7.30
2017-04-23T01:56:19.157Z,7.40
2017-04-23T01:57:17.026Z,7.30
2017-04-23T01:58:15.096Z,7.30
2017-04-23T01:59:12.509Z,7.30
2017-04-23T02:00:10.328Z,7.10
2017-04-23T02:01:08.134Z,7.00
2017-04-23T02:02:05.937Z,7.10
2017-04-23T02:03:03.807Z,7.10
2017-04-23T02:04:01.214Z,7.10
2017-04-23T02:04:59.026Z,7.20
2017-04-23T02:05:56.434Z,7.20
2017-04-23T02:06:54.257Z,7.20
2017-04-23T02:07:51.676Z,7.20
2017-04-23T02:08:49.546Z,7.00
2017-04-23T02:09:46.971Z,7.00
2017-04-23T02:10:44.776Z,6.90
2017-04-23T02:11:42.593Z,6.80
2017-04-23T02:12:40.399Z,6.80
2017-04-23T02:13:37.819Z,6.80
2017-04-23T02:14:35.669Z,6.80
2017-04-23T02:15:33.483Z,6.90
2017-04-23T02:16:31.369Z,7.00
2017-04-23T02:17:29.190Z,7.10
2017-04-23T02:18:26.637Z,7.10
2017-04-23T02:19:24.469Z,7.10
2017-04-23T02:20:22.402Z,7.00
2017-04-23T02:21:20.250Z,7.00
2017-04-23T02:22:18.090Z,6.90
2017-04-23T02:23:15.902Z,6.90
2017-04-23T02:24:13.729Z,6.70
2017-04-23T02:25:11.576Z,6.60
2017-04-23T02:26:09.460Z,6.60
2017-04-23T02:27:06.902Z,6.60
2017-04-23T02:28:04.350Z,6.60
2017-04-23T02:29:01.765Z,6.60
2017-04-23T02:29:59.601Z,6.70
2017-04-23T02:30:57.429Z,6.60
2017-04-23T02:31:55.678Z,6.50
2017-04-23T02:32:53.498Z,6.50
2017-04-23T02:33:51.314Z,6.40
2017-04-23T02:34:49.138Z,6.40
2017-04-23T02:35:46.949Z,6.50
2017-04-23T02:36:44.761Z,6.50
2017-04-23T02:37:42.627Z,6.50
2017-04-23T02:38:40.449Z,6.60
2017-04-23T02:39:38.262Z,6.70
2017-04-23T02:40:35.677Z,6.70
2017-04-23T02:41:33.489Z,6.90
2017-04-23T02:42:31.737Z,6.90
2017-04-23T02:43:29.607Z,6.90
2017-04-23T02:44:27.482Z,7.00
2017-04-23T02:45:25.308Z,7.00
2017-04-23T02:46:22.734Z,7.00
2017-04-23T02:47:20.945Z,7.00
2017-04-23T02:48:18.761Z,7.00
2017-04-23T02:49:16.985Z,7.10
2017-04-23T02:50:14.793Z,7.10
2017-04-23T02:51:12.605Z,7.10
2017-04-23T02:52:10.434Z,7.10
2017-04-23T02:53:08.265Z,7.20
2017-04-23T02:54:06.076Z,7.20
2017-04-23T02:55:03.929Z,7.20
2017-04-23T02:56:01.349Z,7.20
2017-04-23T02:56:59.182Z,7.20
2017-04-23T02:57:56.989Z,7.20
2017-04-23T02:58:54.793Z,7.20
2017-04-23T02:59:52.608Z,7.20
2017-04-23T03:00:50.528Z,7.20
2017-04-23T03:01:48.350Z,7.20
2017-04-23T03:02:46.170Z,7.20
2017-04-23T03:03:43.591Z,7.20
2017-04-23T03:04:41.431Z,7.10
2017-04-23T03:05:39.246Z,7.10
2017-04-23T03:06:37.466Z,7.10
2017-04-23T03:07:35.281Z,7.10
2017-04-23T03:08:32.694Z,7.10
2017-04-23T03:09:30.505Z,7.10
2017-04-23T03:10:28.369Z,7.20
2017-04-23T03:11:26.176Z,7.10
2017-04-23T03:12:24.073Z,7.20
2017-04-23T03:13:21.890Z,7.20
2017-04-23T03:14:19.717Z,7.20
2017-04-23T03:15:17.546Z,7.30
2017-04-23T03:16:15.379Z,7.30
2017-04-23T03:17:12.794Z,7.30
2017-04-23T03:18:11.044Z,7.30
2017-04-23T03:19:08.862Z,7.30
2017-04-23T03:20:06.681Z,7.30
2017-04-23T03:21:04.509Z,7.30
2017-04-23T03:22:02.329Z,7.20
2017-04-23T03:23:00.162Z,7.20
2017-04-23T03:23:58.058Z,7.20
2017-04-23T03:24:55.881Z,7.20
2017-04-23T03:25:53.705Z,7.20
2017-04-23T03:26:51.553Z,7.20
2017-04-23T03:27:49.362Z,7.20
2017-04-23T03:28:47.577Z,7.10
2017-04-23T03:29:45.445Z,7.10
2017-04-23T03:30:43.278Z,7.10
2017-04-23T03:31:41.118Z,7.10
2017-04-23T03:32:38.926Z,7.10
2017-04-23T03:33:36.733Z,7.10
2017-04-23T03:34:34.619Z,7.00
2017-04-23T03:35:32.503Z,7.00
2017-04-23T03:36:30.341Z,7.00
2017-04-23T03:37:28.537Z,6.90
2017-04-23T03:38:25.960Z,6.90
2017-04-23T03:39:23.377Z,6.90
2017-04-23T03:40:21.192Z,7.00
2017-04-23T03:41:18.687Z,6.90
2017-04-23T03:42:16.522Z,7.00
2017-04-23T03:43:14.378Z,7.00
2017-04-23T03:44:12.246Z,7.00
2017-04-23T03:45:09.699Z,7.00
2017-04-23T03:46:07.509Z,6.90
2017-04-23T03:47:05.361Z,6.90
2017-04-23T03:48:03.173Z,6.90
2017-04-23T03:49:00.591Z,6.90
2017-04-23T03:49:58.405Z,6.90
2017-04-23T03:50:56.262Z,6.90
2017-04-23T03:51:53.692Z,6.90
2017-04-23T03:52:51.562Z,6.90
2017-04-23T03:53:49.379Z,6.80
2017-04-23T03:54:47.190Z,6.80
2017-04-23T03:55:45.001Z,6.70
2017-04-23T03:56:42.806Z,6.70
2017-04-23T03:57:41.136Z,6.60
2017-04-23T03:58:38.982Z,6.50
2017-04-23T03:59:36.390Z,6.50
2017-04-23T04:00:34.217Z,6.50
2017-04-23T04:01:32.025Z,6.60
2017-04-23T04:02:29.838Z,6.70
2017-04-23T04:03:27.641Z,6.70
2017-04-23T04:04:25.098Z,6.70
2017-04-23T04:05:22.502Z,6.80
2017-04-23T04:06:20.314Z,6.90
2017-04-23T04:07:18.113Z,6.80
2017-04-23T04:08:15.930Z,6.70
2017-04-23T04:09:13.726Z,6.60
2017-04-23T04:10:11.577Z,6.60
2017-04-23T04:11:09.421Z,6.60
2017-04-23T04:12:07.217Z,6.60
2017-04-23T04:13:05.021Z,6.70
2017-04-23T04:14:02.825Z,6.80
2017-04-23T04:15:00.645Z,6.80
2017-04-23T04:15:58.490Z,6.80
2017-04-23T04:16:55.896Z,6.80
2017-04-23T04:17:53.702Z,6.90
2017-04-23T04:18:51.524Z,6.90
2017-04-23T04:19:49.347Z,6.90
2017-04-23T04:20:47.186Z,7.00
2017-04-23T04:21:45.066Z,6.90
2017-04-23T04:22:42.885Z,6.90
2017-04-23T04:23:40.700Z,6.80
2017-04-23T04:24:38.493Z,6.60
2017-04-23T04:25:36.289Z,6.60
2017-04-23T04:26:34.089Z,6.50
2017-04-23T04:27:31.545Z,6.50
2017-04-23T04:28:29.348Z,6.40
2017-04-23T04:29:26.757Z,6.50
2017-04-23T04:30:24.594Z,6.50
2017-04-23T04:31:22.401Z,6.60
2017-04-23T04:32:20.269Z,6.60
2017-04-23T04:33:17.760Z,6.60
2017-04-23T04:34:15.577Z,6.60
2017-04-23T04:35:12.974Z,6.60
2017-04-23T04:36:10.773Z,6.60
2017-04-23T04:37:08.281Z,6.60
2017-04-23T04:38:06.111Z,6.40
2017-04-23T04:39:04.218Z,6.40
2017-04-23T04:40:02.039Z,6.40
2017-04-23T04:40:59.849Z,6.50
2017-04-23T04:41:57.657Z,6.60
2017-04-23T04:42:55.469Z,6.60
2017-04-23T04:43:53.322Z,6.80
2017-04-23T04:44:51.174Z,6.90
2017-04-23T04:45:48.985Z,6.90
2017-04-23T04:46:46.428Z,6.90
2017-04-23T04:47:44.610Z,7.00
2017-04-23T04:48:42.430Z,7.00
2017-04-23T04:49:40.254Z,7.00
2017-04-23T04:50:38.116Z,7.00
2017-04-23T04:51:35.938Z,7.10
2017-04-23T04:52:33.759Z,7.10
2017-04-23T04:53:31.577Z,7.20
2017-04-23T04:54:29.390Z,7.20
2017-04-23T04:55:26.810Z,7.20
2017-04-23T04:56:24.679Z,7.20
2017-04-23T04:57:22.505Z,7.30
2017-04-23T04:58:20.338Z,7.30
2017-04-23T04:59:18.401Z,7.30
2017-04-23T05:00:16.236Z,7.30
2017-04-23T05:01:14.045Z,7.40
2017-04-23T05:02:11.902Z,7.30
2017-04-23T05:03:09.709Z,7.30
2017-04-23T05:04:07.545Z,7.20
2017-04-23T05:05:05.364Z,7.20
2017-04-23T05:06:03.213Z,7.20
2017-04-23T05:07:01.101Z,7.20
2017-04-23T05:07:58.954Z,7.20
2017-04-23T05:08:56.769Z,7.20
2017-04-23T05:09:54.190Z,7.20
2017-04-23T05:10:52.017Z,7.20
2017-04-23T05:11:49.833Z,7.30
2017-04-23T05:12:47.646Z,7.30
2017-04-23T05:13:45.109Z,7.30
2017-04-23T05:14:42.531Z,7.40
2017-04-23T05:15:39.947Z,7.50
2017-04-23T05:16:37.767Z,7.60
2017-04-23T05:17:35.586Z,7.70
2017-04-23T05:18:33.410Z,7.70
2017-04-23T05:19:31.257Z,7.80
2017-04-23T05:20:29.070Z,7.90
2017-04-23T05:21:27.253Z,7.90
2017-04-23T05:22:25.065Z,7.90
2017-04-23T05:23:22.879Z,7.90
2017-04-23T05:24:20.694Z,7.90
2017-04-23T05:25:18.605Z,7.80
2017-04-23T05:26:16.442Z,7.70
2017-04-23T05:27:13.865Z,7.70
2017-04-23T05:28:12.046Z,7.30
2017-04-23T05:29:09.885Z,7.20
2017-04-23T05:30:08.069Z,7.10
2017-04-23T05:31:05.522Z,7.10
2017-04-23T05:32:03.349Z,6.90
2017-04-23T05:33:01.171Z,6.90
2017-04-23T05:33:58.998Z,6.90
2017-04-23T05:34:56.833Z,6.80
2017-04-23T05:35:54.641Z,6.70
2017-04-23T05:36:52.514Z,6.80
2017-04-23T05:37:50.329Z,6.90
2017-04-23T05:38:48.141Z,6.80
2017-04-23T05:39:45.573Z,6.80
2017-04-23T05:40:43.388Z,6.70
2017-04-23T05:41:41.210Z,6.60
2017-04-23T05:42:39.066Z,6.60
2017-04-23T05:43:36.881Z,6.50
2017-04-23T05:44:34.702Z,6.50
2017-04-23T05:45:32.517Z,6.50
2017-04-23T05:46:29.995Z,6.50
2017-04-23T05:47:27.846Z,6.60
2017-04-23T05:48:25.722Z,6.70
2017-04-23T05:49:23.546Z,6.70
2017-04-23T05:50:21.384Z,6.60
2017-04-23T05:51:18.854Z,6.60
2017-04-23T05:52:16.289Z,6.60
2017-04-23T05:53:14.113Z,6.80
2017-04-23T05:54:12.018Z,6.90
2017-04-23T05:55:10.215Z,7.00
2017-04-23T05:56:07.633Z,7.10
2017-04-23T05:57:05.814Z,7.40
2017-04-23T05:58:03.234Z,7.40
2017-04-23T05:59:01.042Z,7.60
2017-04-23T05:59:58.901Z,7.60
2017-04-23T06:00:56.734Z,7.50
2017-04-23T06:01:54.549Z,7.40
2017-04-23T06:02:52.374Z,7.30
2017-04-23T06:03:49.789Z,7.30
2017-04-23T06:04:47.609Z,7.40
2017-04-23T06:05:45.478Z,7.40
2017-04-23T06:06:43.295Z,7.40
2017-04-23T06:07:40.718Z,7.40
2017-04-23T06:08:40.072Z,7.40
2017-04-23T06:09:38.010Z,7.30
2017-04-23T06:10:35.847Z,7.30
2017-04-23T06:11:33.709Z,7.20
2017-04-23T06:12:31.541Z,7.10
2017-04-23T06:13:29.365Z,7.00
2017-04-23T06:14:27.190Z,7.00
2017-04-23T06:15:25.017Z,7.00
2017-04-23T06:16:22.865Z,7.00
2017-04-23T06:17:20.745Z,7.00
2017-04-23T06:18:18.591Z,7.00
2017-04-23T06:19:16.043Z,7.00
2017-04-23T06:20:13.861Z,7.20
2017-04-23T06:21:11.682Z,7.30
2017-04-23T06:22:09.498Z,7.30
2017-04-23T06:23:07.417Z,7.40
2017-04-23T06:24:05.245Z,7.40
2017-04-23T06:25:03.150Z,7.40
2017-04-23T06:26:00.970Z,7.40
2017-04-23T06:26:58.817Z,7.40
2017-04-23T06:27:56.632Z,7.30
2017-04-23T06:28:54.526Z,7.20
2017-04-23T06:29:52.356Z,7.00
2017-04-23T06:30:50.173Z,7.00
2017-04-23T06:31:47.997Z,7.10
2017-04-23T06:32:45.433Z,7.10
2017-04-23T06:33:43.279Z,7.30
2017-04-23T06:34:41.533Z,7.50
2017-04-23T06:35:38.969Z,7.50
2017-04-23T06:36:36.792Z,7.80
2017-04-23T06:37:34.210Z,7.80
2017-04-23T06:38:32.050Z,8.20
2017-04-23T06:39:30.306Z,8.40
2017-04-23T06:40:28.565Z,8.40
2017-04-23T06:41:26.389Z,8.50
2017-04-23T06:42:24.202Z,8.60
2017-04-23T06:43:22.410Z,8.70
2017-04-23T06:44:20.277Z,8.70
2017-04-23T06:45:18.101Z,8.80
2017-04-23T06:46:16.057Z,8.80
2017-04-23T06:47:13.924Z,8.90
2017-04-23T06:48:11.738Z,9.00
2017-04-23T06:49:09.166Z,8.90
2017-04-23T06:50:06.993Z,8.80
2017-04-23T06:51:04.809Z,8.70
2017-04-23T06:52:02.277Z,8.70
2017-04-23T06:53:00.117Z,8.70
2017-04-23T06:53:58.323Z,8.70
2017-04-23T06:54:55.730Z,8.70
2017-04-23T06:55:53.537Z,8.80
2017-04-23T06:56:51.338Z,8.90
2017-04-23T06:57:49.218Z,9.00
2017-04-23T06:58:47.021Z,9.10
2017-04-23T06:59:44.942Z,9.00
2017-04-23T07:00:42.759Z,9.00
2017-04-23T07:01:40.630Z,8.80
2017-04-23T07:02:43.802Z,8.80
2017-04-23T07:03:42.303Z,8.50
2017-04-23T07:04:40.137Z,8.30
2017-04-23T07:05:37.565Z,8.30
2017-04-23T07:06:35.365Z,8.30
2017-04-23T07:07:32.773Z,8.30
2017-04-23T07:08:30.574Z,8.60
2017-04-23T07:09:28.445Z,8.60
2017-04-23T07:10:25.851Z,8.60
2017-04-23T07:11:23.658Z,8.50
2017-04-23T07:12:21.479Z,8.50
2017-04-23T07:13:18.890Z,8.50
2017-04-23T07:14:17.090Z,8.40
2017-04-23T07:15:14.962Z,8.40
2017-04-23T07:16:12.787Z,8.40
2017-04-23T07:17:11.005Z,8.50
2017-04-23T07:18:08.821Z,8.50
2017-04-23T07:19:06.652Z,8.60
2017-04-23T07:20:04.412Z,8.60
2017-04-23T07:21:02.369Z,8.80
2017-04-23T07:22:00.201Z,9.00
2017-04-23T07:22:58.033Z,9.10
2017-04-23T07:23:55.850Z,9.20
2017-04-23T07:24:53.283Z,9.30
2017-04-23T07:25:51.089Z,9.50
2017-04-23T07:26:48.953Z,9.60
2017-04-23T07:27:46.776Z,9.60
2017-04-23T07:28:44.598Z,9.70
2017-04-23T07:29:42.410Z,9.70
2017-04-23T07:30:40.237Z,9.70
2017-04-23T07:31:38.049Z,9.80
2017-04-23T07:32:35.898Z,9.90
2017-04-23T07:33:33.729Z,10.00
2017-04-23T07:34:31.609Z,10.10
2017-04-23T07:35:29.436Z,10.20
2017-04-23T07:36:27.260Z,10.20
2017-04-23T07:37:25.529Z,10.10
2017-04-23T07:38:23.491Z,10.00
2017-04-23T07:39:20.927Z,10.00
2017-04-23T07:40:18.762Z,10.00
2017-04-23T07:41:16.590Z,10.10
2017-04-23T07:42:14.014Z,10.10
2017-04-23T07:43:11.829Z,10.10
2017-04-23T07:44:09.690Z,10.10
2017-04-23T07:45:07.141Z,10.10
2017-04-23T07:46:04.962Z,10.00
2017-04-23T07:47:03.158Z,10.00
2017-04-23T07:48:01.006Z,9.80
2017-04-23T07:48:58.829Z,9.60
2017-04-23T07:49:56.737Z,9.60
2017-04-23T07:50:54.557Z,9.40
2017-04-23T07:51:51.986Z,9.40
2017-04-23T07:52:49.809Z,9.10
2017-04-23T07:53:47.634Z,8.90
2017-04-23T07:54:45.054Z,8.90
2017-04-23T07:55:43.325Z,8.80
2017-04-23T07:56:41.143Z,8.70
2017-04-23T07:57:39.011Z,8.70
2017-04-23T07:58:36.829Z,8.80
2017-04-23T07:59:34.658Z,8.80
2017-04-23T08:00:32.489Z,8.80
2017-04-23T08:01:30.362Z,8.90
2017-04-23T08:02:28.185Z,8.90
2017-04-23T08:03:26.014Z,9.00
2017-04-23T08:04:23.837Z,9.20
2017-04-23T08:05:21.664Z,9.30
2017-04-23T08:06:19.555Z,9.40
2017-04-23T08:07:17.039Z,9.40
2017-04-23T08:08:14.876Z,9.60
2017-04-23T08:09:12.691Z,9.60
2017-04-23T08:10:10.666Z,9.60
2017-04-23T08:11:08.465Z,9.60
2017-04-23T08:12:05.871Z,9.60
2017-04-23T08:13:03.354Z,9.40
2017-04-23T08:14:01.165Z,9.40
2017-04-23T08:14:58.991Z,9.20
2017-04-23T08:15:56.817Z,8.90
2017-04-23T08:16:54.626Z,8.70
2017-04-23T08:17:52.455Z,8.60
2017-04-23T08:18:50.324Z,8.70
2017-04-23T08:19:48.129Z,8.80
2017-04-23T08:20:45.945Z,8.90
2017-04-23T08:21:43.756Z,8.90
2017-04-23T08:22:41.565Z,8.80
2017-04-23T08:23:39.378Z,8.80
2017-04-23T08:24:37.242Z,8.90
2017-04-23T08:25:35.046Z,8.90
2017-04-23T08:26:32.866Z,8.90
2017-04-23T08:27:30.682Z,9.00
2017-04-23T08:28:28.118Z,9.00
2017-04-23T08:29:26.301Z,8.90
2017-04-23T08:30:24.196Z,8.70
2017-04-23T08:31:21.997Z,8.70
2017-04-23T08:32:19.413Z,8.70
2017-04-23T08:33:16.829Z,8.70
2017-04-23T08:34:14.687Z,8.80
2017-04-23T08:35:12.519Z,8.80
2017-04-23T08:36:10.372Z,8.90
2017-04-23T08:37:08.192Z,9.00
2017-04-23T08:38:06.006Z,9.10
2017-04-23T08:39:04.318Z,9.10
2017-04-23T08:40:01.733Z,9.10
2017-04-23T08:40:59.147Z,8.90
2017-04-23T08:41:56.984Z,8.80
2017-04-23T08:42:54.402Z,8.80
2017-04-23T08:43:52.273Z,8.80
2017-04-23T08:44:50.477Z,8.80
2017-04-23T08:45:48.310Z,8.90
2017-04-23T08:46:45.721Z,8.80
2017-04-23T08:47:43.532Z,9.00
2017-04-23T08:48:41.342Z,9.10
2017-04-23T08:49:39.205Z,9.10
2017-04-23T08:50:37.005Z,9.10
2017-04-23T08:51:34.426Z,9.10
2017-04-23T08:52:32.238Z,9.10
2017-04-23T08:53:30.077Z,9.20
2017-04-23T08:54:27.890Z,9.30
2017-04-23T08:55:26.118Z,9.30
2017-04-23T08:56:23.959Z,9.30
2017-04-23T08:57:21.379Z,9.30
2017-04-23T08:58:18.794Z,9.30
2017-04-23T08:59:16.967Z,9.50
2017-04-23T09:00:14.386Z,9.50
2017-04-23T09:01:12.248Z,9.70
2017-04-23T09:02:10.085Z,9.70
2017-04-23T09:03:07.889Z,9.70
2017-04-23T09:04:05.740Z,9.70
2017-04-23T09:05:03.161Z,9.70
2017-04-23T09:06:01.013Z,9.80
2017-04-23T09:06:58.862Z,9.70
2017-04-23T09:07:56.698Z,9.60
2017-04-23T09:08:54.509Z,9.60
2017-04-23T09:09:52.306Z,9.70
2017-04-23T09:10:50.115Z,9.70
2017-04-23T09:11:47.922Z,9.70
2017-04-23T09:12:45.802Z,9.60
2017-04-23T09:13:43.602Z,9.60
2017-04-23T09:14:41.006Z,9.60
2017-04-23T09:15:38.814Z,9.70
2017-04-23T09:16:37.105Z,9.80
2017-04-23T09:17:34.938Z,9.90
2017-04-23T09:18:33.893Z,9.90
2017-04-23T09:19:31.321Z,9.90
2017-04-23T09:20:29.130Z,10.00
2017-04-23T09:21:26.549Z,10.00
2017-04-23T09:22:24.730Z,10.20
2017-04-23T09:23:22.909Z,10.20
2017-04-23T09:24:20.774Z,10.10
2017-04-23T09:25:18.590Z,10.10
2017-04-23T09:26:16.401Z,10.10
2017-04-23T09:27:13.829Z,10.10
2017-04-23T09:28:11.646Z,10.20
2017-04-23T09:29:09.481Z,10.20
2017-04-23T09:30:07.366Z,9.90
2017-04-23T09:31:05.550Z,9.60
2017-04-23T09:32:03.353Z,9.40
2017-04-23T09:33:01.163Z,9.30
2017-04-23T09:33:58.978Z,9.20
2017-04-23T09:34:56.422Z,9.20
2017-04-23T09:35:54.271Z,9.30
2017-04-23T09:36:52.079Z,9.40
2017-04-23T09:37:49.913Z,9.50
2017-04-23T09:38:47.718Z,9.50
2017-04-23T09:39:45.526Z,9.60
2017-04-23T09:40:43.330Z,9.40
2017-04-23T09:41:41.186Z,9.30
2017-04-23T09:42:38.602Z,9.30
2017-04-23T09:43:36.416Z,9.30
2017-04-23T09:44:34.235Z,9.30
2017-04-23T09:45:32.033Z,9.40
2017-04-23T09:46:29.841Z,9.40
2017-04-23T09:47:27.701Z,9.30
2017-04-23T09:48:25.545Z,9.30
2017-04-23T09:49:23.360Z,9.30
2017-04-23T09:50:21.193Z,9.40
2017-04-23T09:51:19.022Z,9.50
2017-04-23T09:52:16.845Z,9.50
2017-04-23T09:53:14.697Z,9.60
2017-04-23T09:54:12.510Z,9.70
2017-04-23T09:55:10.365Z,9.80
2017-04-23T09:56:07.849Z,9.80
2017-04-23T09:57:05.665Z,10.00
2017-04-23T09:58:03.178Z,10.00
2017-04-23T09:59:01.068Z,10.10
2017-04-23T09:59:58.905Z,10.30
2017-04-23T10:00:56.335Z,10.30
2017-04-23T10:01:53.773Z,10.30
2017-04-23T10:02:51.950Z,10.40
2017-04-23T10:03:50.141Z,10.50
2017-04-23T10:04:48.004Z,10.60
2017-04-23T10:05:45.842Z,10.70
2017-04-23T10:06:43.729Z,10.70
2017-04-23T10:07:41.565Z,10.80
2017-04-23T10:08:39.386Z,10.90
2017-04-23T10:09:37.210Z,11.00
2017-04-23T10:10:35.121Z,10.90
2017-04-23T10:11:33.318Z,10.90
2017-04-23T10:12:31.803Z,10.80
2017-04-23T10:13:29.654Z,10.70
2017-04-23T10:14:27.976Z,10.60
2017-04-23T10:15:25.833Z,10.60
2017-04-23T10:16:24.095Z,10.50
2017-04-23T10:17:21.928Z,10.40
2017-04-23T10:18:20.260Z,10.10
2017-04-23T10:19:18.084Z,9.90
2017-04-23T10:20:15.921Z,9.80
2017-04-23T10:21:13.765Z,9.60
2017-04-23T10:22:11.648Z,9.60
2017-04-23T10:23:09.473Z,9.50
2017-04-23T10:24:07.300Z,9.40
2017-04-23T10:25:04.738Z,9.40
2017-04-23T10:26:02.562Z,9.30
2017-04-23T10:27:00.859Z,9.30
2017-04-23T10:27:58.742Z,9.30
2017-04-23T10:28:56.578Z,9.30
2017-04-23T10:29:54.429Z,9.30
2017-04-23T10:30:52.247Z,9.20
2017-04-23T10:31:50.112Z,9.30
2017-04-23T10:32:47.926Z,9.30
2017-04-23T10:33:45.785Z,9.40
2017-04-23T10:34:43.623Z,9.40
2017-04-23T10:35:41.438Z,9.50
2017-04-23T10:36:39.529Z,9.60
2017-04-23T10:37:37.367Z,9.70
2017-04-23T10:38:34.969Z,9.70
2017-04-23T10:39:33.084Z,9.90
2017-04-23T10:40:30.906Z,10.00
2017-04-23T10:41:28.345Z,10.00
2017-04-23T10:42:26.402Z,10.20
2017-04-23T10:43:24.226Z,10.20
2017-04-23T10:44:22.052Z,10.20
2017-04-23T10:45:19.911Z,10.10
2017-04-23T10:46:17.717Z,9.90
2017-04-23T10:47:15.549Z,9.90
2017-04-23T10:48:13.359Z,9.90
2017-04-23T10:49:11.545Z,10.10
2017-04-23T10:50:09.371Z,10.30
2017-04-23T10:51:07.253Z,10.50
2017-04-23T10:52:05.066Z,10.70
2017-04-23T10:53:02.900Z,10.90
2017-04-23T10:54:00.702Z,11.10
2017-04-23T10:54:58.522Z,11.20
2017-04-23T10:55:56.331Z,11.40
2017-04-23T10:56:54.568Z,11.50
2017-04-23T10:57:52.409Z,11.60
2017-04-23T10:58:50.274Z,11.80
2017-04-23T10:59:48.137Z,11.90
2017-04-23T11:00:45.953Z,11.90
2017-04-23T11:01:43.802Z,11.80
2017-04-23T11:02:41.657Z,11.80
2017-04-23T11:03:40.006Z,11.80
2017-04-23T11:04:37.810Z,11.70
2017-04-23T11:05:35.668Z,11.60
2017-04-23T11:06:33.485Z,11.50
2017-04-23T11:07:31.318Z,11.50
2017-04-23T11:08:29.554Z,11.30
2017-04-23T11:09:27.370Z,11.10
2017-04-23T11:10:25.191Z,10.90
2017-04-23T11:11:23.001Z,10.80
2017-04-23T11:12:20.831Z,10.80
2017-04-23T11:13:18.662Z,10.80
2017-04-23T11:14:16.122Z,10.70
2017-04-23T11:15:13.929Z,10.40
2017-04-23T11:16:11.737Z,10.30
2017-04-23T11:17:09.562Z,10.20
2017-04-23T11:18:07.372Z,10.30
2017-04-23T11:19:05.250Z,10.30
2017-04-23T11:20:03.110Z,10.20
2017-04-23T11:21:00.935Z,10.10
2017-04-23T11:21:58.782Z,10.10
2017-04-23T11:22:56.226Z,10.10
2017-04-23T11:23:54.032Z,10.00
2017-04-23T11:24:51.858Z,10.00
2017-04-23T11:25:49.722Z,10.10
2017-04-23T11:26:47.534Z,10.30
2017-04-23T11:27:45.753Z,10.40
2017-04-23T11:28:43.578Z,10.60
2017-04-23T11:29:41.003Z,10.60
2017-04-23T11:30:38.821Z,10.80
2017-04-23T11:31:37.206Z,10.70
2017-04-23T11:32:35.408Z,10.60
2017-04-23T11:33:32.877Z,10.50
2017-04-23T11:34:31.078Z,10.50
2017-04-23T11:35:28.893Z,10.60
2017-04-23T11:36:27.450Z,10.60
2017-04-23T11:37:25.616Z,10.70
2017-04-23T11:38:23.669Z,10.70
2017-04-23T11:39:21.496Z,10.60
2017-04-23T11:40:19.313Z,10.60
2017-04-23T11:41:17.129Z,10.60
2017-04-23T11:42:14.713Z,10.70
2017-04-23T11:43:12.169Z,10.60
2017-04-23T11:44:10.050Z,10.80
2017-04-23T11:45:07.873Z,10.80
2017-04-23T11:46:05.695Z,10.80
2017-04-23T11:47:03.509Z,10.70
2017-04-23T11:48:01.342Z,10.80
2017-04-23T11:48:59.185Z,10.60
2017-04-23T11:49:57.062Z,10.40
2017-04-23T11:50:54.886Z,10.10
2017-04-23T11:51:52.698Z,9.90
2017-04-23T11:52:50.746Z,9.90
2017-04-23T11:53:49.044Z,9.90
2017-04-23T11:54:46.922Z,10.00
2017-04-23T11:55:44.793Z,10.20
2017-04-23T11:56:42.641Z,10.40
2017-04-23T11:57:40.830Z,10.70
2017-04-23T11:58:38.874Z,10.90
2017-04-23T11:59:36.698Z,11.00
2017-04-23T12:00:34.523Z,11.10
2017-04-23T12:01:32.586Z,11.20
2017-04-23T12:02:30.463Z,11.20
2017-04-23T12:03:28.560Z,11.00
2017-04-23T12:04:26.675Z,10.90
2017-04-23T12:05:24.590Z,10.80
2017-04-23T12:06:22.919Z,10.90
2017-04-23T12:07:20.402Z,10.90
2017-04-23T12:08:18.229Z,10.80
2017-04-23T12:09:16.050Z,10.80
2017-04-23T12:10:13.477Z,10.80
2017-04-23T12:11:10.901Z,10.90
2017-04-23T12:12:08.722Z,11.00
2017-04-23T12:13:06.589Z,11.10
2017-04-23T12:14:04.429Z,11.30
2017-04-23T12:15:02.635Z,11.40
2017-04-23T12:16:00.126Z,11.40
2017-04-23T12:16:58.053Z,11.70
2017-04-23T12:17:55.903Z,11.80
2017-04-23T12:18:54.143Z,11.80
2017-04-23T12:19:51.968Z,11.90
2017-04-23T12:20:49.790Z,11.90
2017-04-23T12:21:48.202Z,11.90
2017-04-23T12:22:46.021Z,11.90
2017-04-23T12:23:43.859Z,11.90
2017-04-23T12:24:41.728Z,11.80
2017-04-23T12:25:39.559Z,11.70
2017-04-23T12:26:37.677Z,11.50
2017-04-23T12:27:35.509Z,11.40
2017-04-23T12:28:33.322Z,11.50
2017-04-23T12:29:31.214Z,11.60
2017-04-23T12:30:29.142Z,11.60
2017-04-23T12:31:26.967Z,11.60
2017-04-23T12:32:24.807Z,11.70
2017-04-23T12:33:22.234Z,11.70
2017-04-23T12:34:20.100Z,11.80
2017-04-23T12:35:17.972Z,11.70
2017-04-23T12:36:15.458Z,11.70
2017-04-23T12:37:13.301Z,11.30
2017-04-23T12:38:11.144Z,11.10
2017-04-23T12:39:08.987Z,11.10
2017-04-23T12:40:06.421Z,11.10
2017-04-23T12:41:04.258Z,10.90
2017-04-23T12:42:02.171Z,10.90
2017-04-23T12:43:00.087Z,11.00
2017-04-23T12:43:58.295Z,11.00